Time;durP1;ratioP1;P1;durP2;ratioP2;P2;SDS_P1;SDS_P2;PMS_P1;PMS_P2;Temp;Humidity;BMP_temperature;BMP_pressure;BME280_temperature;BME280_humidity;BME280_pressure;Samples;Min_cycle;Max_cycle;Signal;HPM_P1;HPM_P2
2024/01/01 00:01:09;;;;;;;27.80;18.85;;;;;;;;;;5047829;27;20024;-61
2024/01/01 00:03:37;;;;;;;31.83;18.27;;;;;;;;;;5042140;28;20305;-62
2024/01/01 00:06:04;;;;;;;35.15;23.52;;;;;;;;;;5041770;28;20036;-62
2024/01/01 00:08:31;;;;;;;52.65;28.45;;;;;;;;;;5042220;28;20059;-64
2024/01/01 00:11:00;;;;;;;45.05;25.23;;;;;;;;;;5041344;28;20033;-60
2024/01/01 00:13:26;;;;;;;41.42;27.75;;;;;;;;;;5039708;28;20089;-65
2024/01/01 00:15:56;;;;;;;51.58;30.77;;;;;;;;;;5041956;28;20260;-63
2024/01/01 00:18:23;;;;;;;37.72;26.23;;;;;;;;;;5042290;28;20017;-65
2024/01/01 00:20:52;;;;;;;34.63;25.15;;;;;;;;;;5041407;28;20021;-65
2024/01/01 00:23:20;;;;;;;44.45;25.92;;;;;;;;;;5040531;28;20209;-59
2024/01/01 00:25:46;;;;;;;40.58;26.85;;;;;;;;;;5041108;28;20039;-55
2024/01/01 00:28:13;;;;;;;34.97;27.27;;;;;;;;;;5029877;28;20044;-58
2024/01/01 00:30:45;;;;;;;41.25;27.38;;;;;;;;;;5041535;28;20301;-61
2024/01/01 00:33:12;;;;;;;32.75;22.92;;;;;;;;;;5039405;28;20033;-62
2024/01/01 00:35:38;;;;;;;34.80;19.98;;;;;;;;;;5042085;28;20021;-56
2024/01/01 00:38:05;;;;;;;28.02;19.95;;;;;;;;;;5035930;28;20989;-58
2024/01/01 00:40:31;;;;;;;28.60;18.77;;;;;;;;;;5036917;28;20290;-64
2024/01/01 00:42:58;;;;;;;25.15;18.35;;;;;;;;;;5039219;28;20025;-55
2024/01/01 00:45:25;;;;;;;22.58;16.85;;;;;;;;;;5039316;28;20037;-57
2024/01/01 00:47:51;;;;;;;24.92;16.27;;;;;;;;;;5041287;28;20025;-54
2024/01/01 00:50:18;;;;;;;22.92;14.23;;;;;;;;;;5040506;28;20036;-61
2024/01/01 00:52:44;;;;;;;19.88;14.52;;;;;;;;;;5040356;28;20252;-55
2024/01/01 00:55:11;;;;;;;19.92;13.82;;;;;;;;;;5049492;28;20305;-60
2024/01/01 00:57:38;;;;;;;18.25;13.85;;;;;;;;;;5041631;28;20348;-65
2024/01/01 01:00:05;;;;;;;20.42;15.07;;;;;;;;;;5039665;28;20085;-59
2024/01/01 01:02:31;;;;;;;18.77;14.50;;;;;;;;;;5036970;28;20049;-58
2024/01/01 01:04:58;;;;;;;21.92;17.50;;;;;;;;;;5040017;28;20045;-56
2024/01/01 01:07:24;;;;;;;22.00;17.00;;;;;;;;;;5025809;28;20033;-61
2024/01/01 01:09:51;;;;;;;18.30;14.88;;;;;;;;;;5022035;28;20029;-61
2024/01/01 01:12:18;;;;;;;16.98;13.52;;;;;;;;;;5033008;28;20018;-59
2024/01/01 01:14:45;;;;;;;19.73;14.13;;;;;;;;;;5041391;28;20033;-58
2024/01/01 01:17:11;;;;;;;18.58;16.45;;;;;;;;;;5040353;28;20171;-55
2024/01/01 01:19:38;;;;;;;25.00;16.48;;;;;;;;;;5041571;28;20017;-58
2024/01/01 01:22:04;;;;;;;18.65;13.52;;;;;;;;;;5041473;28;20025;-57
2024/01/01 01:24:31;;;;;;;21.92;13.27;;;;;;;;;;5041151;28;20029;-58
2024/01/01 01:26:58;;;;;;;19.48;13.68;;;;;;;;;;5041424;28;20031;-52
2024/01/01 01:29:24;;;;;;;16.42;11.75;;;;;;;;;;5041163;28;20036;-57
2024/01/01 01:31:51;;;;;;;18.33;11.40;;;;;;;;;;5041169;28;20066;-53
2024/01/01 01:34:18;;;;;;;25.08;10.93;;;;;;;;;;5041313;28;20025;-59
2024/01/01 01:36:45;;;;;;;16.02;10.68;;;;;;;;;;5041224;28;20028;-53
2024/01/01 01:39:11;;;;;;;14.50;9.95;;;;;;;;;;5041433;28;20028;-56
2024/01/01 01:41:38;;;;;;;12.82;9.63;;;;;;;;;;5039631;28;20041;-58
2024/01/01 01:44:05;;;;;;;16.23;10.15;;;;;;;;;;5046903;28;20025;-60
2024/01/01 01:46:33;;;;;;;13.20;10.45;;;;;;;;;;5044510;28;20029;-57
2024/01/01 01:49:01;;;;;;;15.70;10.07;;;;;;;;;;5040288;28;20025;-61
2024/01/01 01:51:28;;;;;;;13.18;9.52;;;;;;;;;;5039235;28;20021;-58
2024/01/01 01:53:55;;;;;;;15.32;9.23;;;;;;;;;;5036497;28;20370;-59
2024/01/01 01:56:22;;;;;;;14.98;8.70;;;;;;;;;;5038243;28;20208;-57
2024/01/01 01:58:49;;;;;;;16.30;8.93;;;;;;;;;;5041141;28;20018;-57
2024/01/01 02:01:16;;;;;;;19.98;9.68;;;;;;;;;;5024819;28;20093;-59
2024/01/01 02:03:44;;;;;;;15.57;8.95;;;;;;;;;;5031324;28;20029;-56
2024/01/01 02:06:11;;;;;;;14.25;9.55;;;;;;;;;;5032868;28;20213;-58
2024/01/01 02:08:37;;;;;;;14.73;10.73;;;;;;;;;;5040742;28;20017;-60
2024/01/01 02:11:04;;;;;;;15.68;11.48;;;;;;;;;;5035584;28;20041;-58
2024/01/01 02:13:31;;;;;;;24.30;12.15;;;;;;;;;;5058784;28;20287;-56
2024/01/01 02:15:58;;;;;;;17.08;11.55;;;;;;;;;;5063738;27;20314;-50
2024/01/01 02:18:28;;;;;;;17.27;10.48;;;;;;;;;;5114879;27;20021;-59
2024/01/01 02:20:56;;;;;;;15.75;10.23;;;;;;;;;;5103621;27;20025;-64
2024/01/01 02:23:24;;;;;;;18.10;10.35;;;;;;;;;;5040071;28;20170;-60
2024/01/01 02:25:51;;;;;;;13.38;9.25;;;;;;;;;;5053153;28;20039;-61
2024/01/01 02:28:19;;;;;;;11.15;9.30;;;;;;;;;;5063560;28;20013;-62
2024/01/01 02:30:46;;;;;;;14.93;9.60;;;;;;;;;;5063777;28;20401;-61
2024/01/01 02:33:14;;;;;;;15.50;10.85;;;;;;;;;;5047989;28;20025;-60
2024/01/01 02:35:40;;;;;;;16.30;10.40;;;;;;;;;;5043909;28;20026;-56
2024/01/01 02:38:07;;;;;;;13.27;10.30;;;;;;;;;;5100262;27;20077;-58
2024/01/01 02:40:35;;;;;;;27.42;12.00;;;;;;;;;;5051958;27;20201;-60
2024/01/01 02:43:02;;;;;;;20.45;11.98;;;;;;;;;;5147509;27;20028;-63
2024/01/01 02:45:29;;;;;;;16.60;12.43;;;;;;;;;;5148635;27;20022;-60
2024/01/01 02:47:55;;;;;;;20.90;12.52;;;;;;;;;;5125388;27;20029;-61
2024/01/01 02:50:22;;;;;;;17.23;12.27;;;;;;;;;;5053500;27;20021;-60
2024/01/01 02:52:49;;;;;;;17.42;12.10;;;;;;;;;;5037676;28;20050;-59
2024/01/01 02:55:16;;;;;;;35.47;17.45;;;;;;;;;;5024811;27;20231;-58
2024/01/01 02:57:43;;;;;;;30.05;24.25;;;;;;;;;;5041799;28;20030;-58
2024/01/01 03:00:10;;;;;;;34.35;30.95;;;;;;;;;;5028487;28;20197;-55
2024/01/01 03:02:40;;;;;;;24.65;21.95;;;;;;;;;;5034503;28;20045;-59
2024/01/01 03:05:07;;;;;;;17.73;14.95;;;;;;;;;;5030186;28;20297;-59
2024/01/01 03:07:34;;;;;;;14.40;11.05;;;;;;;;;;5034935;28;20325;-57
2024/01/01 03:10:01;;;;;;;22.33;10.10;;;;;;;;;;5032872;28;20101;-59
2024/01/01 03:12:28;;;;;;;14.98;10.43;;;;;;;;;;5041180;28;20082;-58
2024/01/01 03:14:54;;;;;;;16.10;9.52;;;;;;;;;;5041651;27;20028;-59
2024/01/01 03:17:21;;;;;;;12.52;8.93;;;;;;;;;;5041859;28;20054;-63
2024/01/01 03:19:47;;;;;;;16.15;8.70;;;;;;;;;;5040382;28;20017;-60
2024/01/01 03:22:14;;;;;;;15.05;8.48;;;;;;;;;;5052455;27;20021;-61
2024/01/01 03:24:40;;;;;;;12.02;8.63;;;;;;;;;;5039543;28;20064;-59
2024/01/01 03:27:07;;;;;;;16.17;8.15;;;;;;;;;;5056096;27;20045;-61
2024/01/01 03:29:34;;;;;;;11.57;7.95;;;;;;;;;;5059150;27;20025;-54
2024/01/01 03:32:00;;;;;;;13.90;9.50;;;;;;;;;;5039325;28;20073;-60
2024/01/01 03:34:27;;;;;;;15.88;9.50;;;;;;;;;;5045343;27;20074;-60
2024/01/01 03:36:53;;;;;;;13.43;8.65;;;;;;;;;;5038079;28;20049;-59
2024/01/01 03:39:20;;;;;;;11.90;8.93;;;;;;;;;;5038683;27;20064;-58
2024/01/01 03:41:47;;;;;;;11.13;8.93;;;;;;;;;;5048522;27;20075;-62
2024/01/01 03:44:13;;;;;;;15.10;10.00;;;;;;;;;;5043232;28;20026;-59
2024/01/01 03:46:40;;;;;;;23.73;10.45;;;;;;;;;;5055791;27;20027;-61
2024/01/01 03:49:07;;;;;;;17.58;10.60;;;;;;;;;;5039644;28;20017;-52
2024/01/01 03:51:33;;;;;;;27.23;11.23;;;;;;;;;;5039777;28;20053;-45
2024/01/01 03:54:00;;;;;;;32.58;11.02;;;;;;;;;;5047805;27;20073;-57
2024/01/01 03:56:26;;;;;;;21.67;11.90;;;;;;;;;;5044549;27;20052;-56
2024/01/01 03:58:53;;;;;;;14.35;10.52;;;;;;;;;;5037692;28;20078;-47
2024/01/01 04:01:23;;;;;;;15.63;9.43;;;;;;;;;;5036754;28;20385;-55
2024/01/01 04:03:49;;;;;;;20.13;10.05;;;;;;;;;;5037806;28;20040;-52
2024/01/01 04:06:16;;;;;;;19.80;8.82;;;;;;;;;;5039878;28;20325;-54
2024/01/01 04:08:42;;;;;;;17.60;8.80;;;;;;;;;;5040538;28;20262;-51
2024/01/01 04:11:09;;;;;;;13.02;9.45;;;;;;;;;;5036853;28;20181;-52
2024/01/01 04:13:35;;;;;;;16.92;9.80;;;;;;;;;;5040925;28;20025;-53
2024/01/01 04:16:02;;;;;;;20.63;13.23;;;;;;;;;;5035100;28;20045;-59
2024/01/01 04:18:29;;;;;;;19.40;11.73;;;;;;;;;;5038255;28;20966;-58
2024/01/01 04:20:55;;;;;;;13.50;10.75;;;;;;;;;;5039027;28;20077;-61
2024/01/01 04:23:22;;;;;;;11.60;9.90;;;;;;;;;;5039529;28;20024;-57
2024/01/01 04:25:48;;;;;;;14.23;9.95;;;;;;;;;;5039624;28;20040;-61
2024/01/01 04:28:15;;;;;;;14.38;9.93;;;;;;;;;;5039636;28;20197;-65
2024/01/01 04:30:42;;;;;;;15.90;10.00;;;;;;;;;;5047793;27;20100;-58
2024/01/01 04:33:08;;;;;;;12.85;9.90;;;;;;;;;;5047570;27;20022;-59
2024/01/01 04:35:35;;;;;;;14.32;9.90;;;;;;;;;;5042353;28;20210;-66
2024/01/01 04:38:01;;;;;;;16.25;9.73;;;;;;;;;;5058926;27;20042;-55
2024/01/01 04:40:28;;;;;;;18.75;10.13;;;;;;;;;;5044000;27;20021;-60
2024/01/01 04:42:55;;;;;;;12.98;11.50;;;;;;;;;;5039810;28;20048;-47
2024/01/01 04:45:22;;;;;;;18.50;12.52;;;;;;;;;;5040932;28;20210;-65
2024/01/01 04:47:49;;;;;;;15.88;11.77;;;;;;;;;;5039100;28;20051;-52
2024/01/01 04:50:16;;;;;;;18.88;11.90;;;;;;;;;;5039724;28;20344;-57
2024/01/01 04:52:43;;;;;;;18.13;11.63;;;;;;;;;;5036640;28;20061;-59
2024/01/01 04:55:10;;;;;;;28.13;11.70;;;;;;;;;;5039922;28;20186;-55
2024/01/01 04:57:36;;;;;;;18.52;11.00;;;;;;;;;;5047344;28;20045;-53
2024/01/01 05:00:03;;;;;;;22.27;10.95;;;;;;;;;;5039395;28;20032;-57
2024/01/01 05:02:30;;;;;;;27.73;12.07;;;;;;;;;;5041612;28;20093;-58
2024/01/01 05:04:56;;;;;;;20.90;12.85;;;;;;;;;;5037246;27;20021;-60
2024/01/01 05:07:23;;;;;;;34.72;27.63;;;;;;;;;;5037750;28;20022;-59
2024/01/01 05:09:49;;;;;;;42.92;32.60;;;;;;;;;;5036958;28;20037;-60
2024/01/01 05:12:16;;;;;;;45.03;32.65;;;;;;;;;;5040483;28;20064;-56
2024/01/01 05:14:43;;;;;;;45.00;36.40;;;;;;;;;;5042204;28;20073;-59
2024/01/01 05:17:10;;;;;;;54.33;42.50;;;;;;;;;;5041626;28;20086;-58
2024/01/01 05:19:36;;;;;;;51.63;43.25;;;;;;;;;;5040356;28;20025;-59
2024/01/01 05:22:04;;;;;;;58.85;45.67;;;;;;;;;;5039526;28;20040;-62
2024/01/01 05:24:31;;;;;;;59.55;45.45;;;;;;;;;;5039014;28;20195;-59
2024/01/01 05:26:57;;;;;;;66.70;43.88;;;;;;;;;;5039406;28;20022;-59
2024/01/01 05:29:24;;;;;;;58.25;42.05;;;;;;;;;;5039768;28;20021;-59
2024/01/01 05:31:50;;;;;;;60.75;39.78;;;;;;;;;;5038960;28;20032;-52
2024/01/01 05:34:17;;;;;;;45.45;35.10;;;;;;;;;;5039233;28;20325;-59
2024/01/01 05:36:44;;;;;;;48.85;32.38;;;;;;;;;;5038662;28;20025;-60
2024/01/01 05:39:10;;;;;;;49.35;32.60;;;;;;;;;;5040792;28;20021;-60
2024/01/01 05:41:37;;;;;;;46.47;30.92;;;;;;;;;;5041031;28;20048;-64
2024/01/01 05:44:03;;;;;;;43.97;28.30;;;;;;;;;;5040814;28;20049;-62
2024/01/01 05:46:31;;;;;;;35.30;26.33;;;;;;;;;;5041160;28;20025;-61
2024/01/01 05:48:57;;;;;;;37.25;26.02;;;;;;;;;;5041245;28;20021;-61
2024/01/01 05:51:24;;;;;;;36.47;24.17;;;;;;;;;;5040482;28;20218;-60
2024/01/01 05:53:51;;;;;;;30.23;22.40;;;;;;;;;;5040432;28;20311;-59
2024/01/01 05:56:17;;;;;;;31.88;22.13;;;;;;;;;;5041031;28;20081;-59
2024/01/01 05:58:44;;;;;;;28.45;19.50;;;;;;;;;;5041185;28;20036;-58
2024/01/01 06:01:10;;;;;;;26.33;17.52;;;;;;;;;;5040880;28;20021;-61
2024/01/01 06:03:37;;;;;;;25.17;17.20;;;;;;;;;;5040248;28;20201;-61
2024/01/01 06:06:04;;;;;;;21.83;16.17;;;;;;;;;;5041084;28;20029;-62
2024/01/01 06:08:30;;;;;;;23.02;15.45;;;;;;;;;;5040719;28;20041;-58
2024/01/01 06:10:57;;;;;;;28.08;17.00;;;;;;;;;;5041268;28;20022;-59
2024/01/01 06:13:24;;;;;;;23.08;15.45;;;;;;;;;;5041125;28;20321;-60
2024/01/01 06:15:51;;;;;;;21.73;15.80;;;;;;;;;;5041035;28;20026;-60
2024/01/01 06:18:19;;;;;;;26.48;15.65;;;;;;;;;;5040890;28;20029;-60
2024/01/01 06:20:45;;;;;;;25.38;15.95;;;;;;;;;;5041332;28;20030;-59
2024/01/01 06:23:12;;;;;;;26.20;16.48;;;;;;;;;;5040518;28;20020;-58
2024/01/01 06:25:38;;;;;;;27.10;15.07;;;;;;;;;;5041036;28;20033;-61
2024/01/01 06:28:05;;;;;;;27.65;15.70;;;;;;;;;;5040642;28;20123;-62
2024/01/01 06:30:34;;;;;;;19.33;13.90;;;;;;;;;;5041788;28;20031;-59
2024/01/01 06:33:04;;;;;;;21.48;13.13;;;;;;;;;;5040643;28;20030;-61
2024/01/01 06:35:31;;;;;;;17.52;12.55;;;;;;;;;;5041206;28;20234;-61
2024/01/01 06:37:58;;;;;;;15.77;11.10;;;;;;;;;;5040464;28;20062;-59
2024/01/01 06:40:24;;;;;;;16.08;10.52;;;;;;;;;;5040981;28;20037;-59
2024/01/01 06:42:51;;;;;;;16.15;10.93;;;;;;;;;;5040883;28;20025;-59
2024/01/01 06:45:17;;;;;;;20.23;11.13;;;;;;;;;;5041017;28;20324;-58
2024/01/01 06:47:44;;;;;;;18.33;10.23;;;;;;;;;;5040322;28;20093;-59
2024/01/01 06:50:11;;;;;;;16.83;10.48;;;;;;;;;;5040724;28;20071;-62
2024/01/01 06:52:37;;;;;;;19.02;10.95;;;;;;;;;;5040399;28;20272;-59
2024/01/01 06:55:04;;;;;;;17.38;10.55;;;;;;;;;;5040474;28;20018;-59
2024/01/01 06:57:30;;;;;;;15.63;10.48;;;;;;;;;;5040429;28;20021;-60
2024/01/01 06:59:57;;;;;;;16.85;10.15;;;;;;;;;;5041003;28;20077;-61
2024/01/01 07:02:24;;;;;;;14.15;9.73;;;;;;;;;;5040291;28;20041;-60
2024/01/01 07:04:50;;;;;;;15.32;9.20;;;;;;;;;;5043885;28;20029;-59
2024/01/01 07:07:17;;;;;;;15.35;9.07;;;;;;;;;;5043580;28;20052;-60
2024/01/01 07:09:44;;;;;;;13.20;9.30;;;;;;;;;;5043780;28;20205;-57
2024/01/01 07:12:18;;;;;;;14.70;8.73;;;;;;;;;;5043500;28;20251;-59
2024/01/01 07:14:45;;;;;;;12.15;8.63;;;;;;;;;;5043808;28;20052;-62
2024/01/01 07:17:12;;;;;;;11.18;9.18;;;;;;;;;;5043367;28;20034;-59
2024/01/01 07:19:39;;;;;;;13.07;9.43;;;;;;;;;;5043751;28;20021;-59
2024/01/01 07:22:05;;;;;;;11.80;8.90;;;;;;;;;;5043569;28;20062;-61
2024/01/01 07:24:32;;;;;;;12.63;9.20;;;;;;;;;;5043685;28;20040;-61
2024/01/01 07:26:59;;;;;;;9.85;8.35;;;;;;;;;;5043777;28;20025;-57
2024/01/01 07:29:25;;;;;;;14.95;8.43;;;;;;;;;;5043987;28;20033;-60
2024/01/01 07:31:52;;;;;;;12.23;8.00;;;;;;;;;;5042966;28;20226;-59
2024/01/01 07:34:19;;;;;;;15.85;8.70;;;;;;;;;;5043205;28;20026;-60
2024/01/01 07:36:46;;;;;;;12.75;8.27;;;;;;;;;;5043191;28;20073;-60
2024/01/01 07:39:13;;;;;;;10.65;8.23;;;;;;;;;;5042973;28;20056;-61
2024/01/01 07:41:40;;;;;;;16.00;8.00;;;;;;;;;;5043203;28;20085;-61
2024/01/01 07:44:07;;;;;;;9.93;8.05;;;;;;;;;;5043361;28;20041;-59
2024/01/01 07:46:34;;;;;;;10.38;7.88;;;;;;;;;;5042747;28;20030;-59
2024/01/01 07:49:03;;;;;;;13.50;7.40;;;;;;;;;;5043307;28;20026;-61
2024/01/01 07:51:30;;;;;;;11.38;7.07;;;;;;;;;;5043371;28;20051;-60
2024/01/01 07:53:56;;;;;;;12.93;7.55;;;;;;;;;;5042635;28;20072;-61
2024/01/01 07:56:23;;;;;;;11.13;7.30;;;;;;;;;;5042929;28;20049;-61
2024/01/01 07:58:50;;;;;;;9.65;6.95;;;;;;;;;;5043160;28;20018;-60
2024/01/01 08:01:18;;;;;;;11.23;7.20;;;;;;;;;;5043089;28;20018;-60
2024/01/01 08:03:44;;;;;;;11.15;7.03;;;;;;;;;;5042882;28;20293;-63
2024/01/01 08:06:11;;;;;;;8.05;6.50;;;;;;;;;;5042830;28;20025;-59
2024/01/01 08:08:38;;;;;;;13.45;7.18;;;;;;;;;;5042578;28;20018;-59
2024/01/01 08:11:05;;;;;;;9.73;6.85;;;;;;;;;;5043298;28;20029;-59
2024/01/01 08:13:31;;;;;;;9.05;6.40;;;;;;;;;;5042537;28;20035;-60
2024/01/01 08:15:58;;;;;;;10.98;6.80;;;;;;;;;;5043009;28;20071;-59
2024/01/01 08:18:25;;;;;;;11.43;6.65;;;;;;;;;;5042821;28;20021;-58
2024/01/01 08:20:51;;;;;;;11.20;7.07;;;;;;;;;;5042489;28;20028;-59
2024/01/01 08:23:18;;;;;;;11.40;6.80;;;;;;;;;;5042262;28;20024;-59
2024/01/01 08:25:44;;;;;;;9.43;6.82;;;;;;;;;;5042335;28;20198;-60
2024/01/01 08:28:11;;;;;;;10.30;6.80;;;;;;;;;;5042613;28;20183;-59
2024/01/01 08:30:39;;;;;;;13.40;6.80;;;;;;;;;;5042630;28;20093;-61
2024/01/01 08:33:06;;;;;;;13.60;7.28;;;;;;;;;;5042378;28;20216;-62
2024/01/01 08:35:33;;;;;;;14.10;7.35;;;;;;;;;;5043055;28;20025;-59
2024/01/01 08:38:00;;;;;;;14.80;7.63;;;;;;;;;;5042237;28;20021;-61
2024/01/01 08:40:26;;;;;;;14.38;7.88;;;;;;;;;;5042467;28;20014;-62
2024/01/01 08:42:53;;;;;;;12.27;7.45;;;;;;;;;;5041990;28;20262;-62
2024/01/01 08:45:20;;;;;;;12.40;7.55;;;;;;;;;;5042407;28;20014;-61
2024/01/01 08:47:47;;;;;;;11.93;7.63;;;;;;;;;;5042316;28;20052;-59
2024/01/01 08:50:14;;;;;;;10.65;7.47;;;;;;;;;;5042620;28;20022;-59
2024/01/01 08:52:44;;;;;;;12.55;7.38;;;;;;;;;;5041856;28;20049;-59
2024/01/01 08:55:11;;;;;;;7.63;6.93;;;;;;;;;;5042574;28;20021;-59
2024/01/01 08:57:38;;;;;;;12.00;7.78;;;;;;;;;;5042290;28;20028;-60
2024/01/01 09:00:05;;;;;;;10.23;7.28;;;;;;;;;;5042099;28;20056;-59
2024/01/01 09:02:32;;;;;;;11.65;7.93;;;;;;;;;;5041815;28;20021;-58
2024/01/01 09:04:59;;;;;;;12.55;7.63;;;;;;;;;;5042087;28;20033;-61
2024/01/01 09:07:25;;;;;;;10.65;7.88;;;;;;;;;;5041774;28;20022;-58
2024/01/01 09:09:52;;;;;;;11.77;7.68;;;;;;;;;;5042039;28;20110;-59
2024/01/01 09:12:19;;;;;;;9.88;7.65;;;;;;;;;;5041970;28;20210;-59
2024/01/01 09:14:45;;;;;;;12.18;7.40;;;;;;;;;;5042062;28;20028;-58
2024/01/01 09:17:12;;;;;;;12.80;8.00;;;;;;;;;;5041615;28;20041;-58
2024/01/01 09:19:39;;;;;;;11.75;8.35;;;;;;;;;;5042312;28;20158;-59
2024/01/01 09:22:05;;;;;;;11.50;7.88;;;;;;;;;;5041872;28;20045;-59
2024/01/01 09:24:32;;;;;;;12.60;7.15;;;;;;;;;;5042219;28;20077;-61
2024/01/01 09:26:59;;;;;;;9.18;7.57;;;;;;;;;;5040685;28;20029;-61
2024/01/01 09:29:25;;;;;;;10.02;7.65;;;;;;;;;;5041915;28;20043;-60
2024/01/01 09:31:52;;;;;;;11.02;7.70;;;;;;;;;;5041262;28;20289;-62
2024/01/01 09:34:18;;;;;;;10.15;7.45;;;;;;;;;;5041660;28;20028;-59
2024/01/01 09:36:45;;;;;;;11.65;8.32;;;;;;;;;;5041320;28;20085;-61
2024/01/01 09:39:12;;;;;;;11.38;7.60;;;;;;;;;;5041457;28;20017;-64
2024/01/01 09:41:38;;;;;;;13.40;7.65;;;;;;;;;;5041470;28;20037;-62
2024/01/01 09:44:05;;;;;;;13.18;7.78;;;;;;;;;;5041262;28;20196;-66
2024/01/01 09:46:34;;;;;;;12.75;7.53;;;;;;;;;;5041467;28;20033;-60
2024/01/01 09:49:02;;;;;;;10.05;7.10;;;;;;;;;;5041526;28;20025;-61
2024/01/01 09:51:30;;;;;;;11.85;7.10;;;;;;;;;;5041698;28;20098;-59
2024/01/01 09:53:56;;;;;;;10.13;7.72;;;;;;;;;;5040791;28;20229;-60
2024/01/01 09:56:26;;;;;;;8.13;6.85;;;;;;;;;;5040341;28;20367;-59
2024/01/01 09:58:53;;;;;;;11.35;7.07;;;;;;;;;;5041515;28;20032;-60
2024/01/01 10:01:19;;;;;;;9.98;7.82;;;;;;;;;;5040821;28;20033;-58
2024/01/01 10:04:03;;;;;;;11.70;7.07;;;;;;;;;;5041343;28;20018;-60
2024/01/01 10:06:30;;;;;;;10.10;7.18;;;;;;;;;;5041673;28;20062;-60
2024/01/01 10:09:09;;;;;;;9.40;7.43;;;;;;;;;;5041041;28;20085;-63
2024/01/01 10:11:40;;;;;;;12.20;7.40;;;;;;;;;;5040750;28;20077;-58
2024/01/01 10:14:07;;;;;;;11.40;7.15;;;;;;;;;;5041310;28;20029;-60
2024/01/01 10:16:34;;;;;;;13.85;7.63;;;;;;;;;;5041020;28;20032;-62
2024/01/01 10:19:02;;;;;;;13.05;6.70;;;;;;;;;;5040822;28;20018;-57
2024/01/01 10:21:29;;;;;;;13.40;7.13;;;;;;;;;;5051018;28;20029;-60
2024/01/01 10:23:56;;;;;;;15.73;8.00;;;;;;;;;;5052140;28;20085;-58
2024/01/01 10:26:23;;;;;;;14.27;8.00;;;;;;;;;;5040378;28;20051;-60
2024/01/01 10:28:49;;;;;;;10.82;7.20;;;;;;;;;;5040263;28;20026;-61
2024/01/01 10:31:16;;;;;;;11.63;7.95;;;;;;;;;;5040665;28;20036;-57
2024/01/01 10:33:43;;;;;;;13.68;7.57;;;;;;;;;;5040675;28;20037;-60
2024/01/01 10:36:12;;;;;;;14.15;7.38;;;;;;;;;;5040791;28;20037;-62
2024/01/01 10:38:39;;;;;;;9.65;7.32;;;;;;;;;;5043970;28;20024;-62
2024/01/01 10:41:06;;;;;;;11.90;7.35;;;;;;;;;;5042068;28;20088;-59
2024/01/01 10:43:34;;;;;;;11.45;7.03;;;;;;;;;;5042293;28;20209;-61
2024/01/01 10:46:05;;;;;;;11.95;7.30;;;;;;;;;;5042503;28;20024;-63
2024/01/01 10:48:32;;;;;;;10.93;7.53;;;;;;;;;;5042922;28;20258;-62
2024/01/01 10:51:05;;;;;;;13.00;7.30;;;;;;;;;;5047633;27;20090;-57
2024/01/01 10:53:37;;;;;;;11.38;6.95;;;;;;;;;;5041433;28;20045;-60
2024/01/01 10:56:13;;;;;;;10.75;6.97;;;;;;;;;;5028919;28;20272;-60
2024/01/01 10:58:51;;;;;;;12.80;7.70;;;;;;;;;;5037366;27;20305;-59
2024/01/01 11:01:20;;;;;;;14.73;6.80;;;;;;;;;;5033855;28;20057;-59
2024/01/01 11:03:47;;;;;;;14.75;7.28;;;;;;;;;;5042712;28;20021;-58
2024/01/01 11:06:27;;;;;;;13.30;7.63;;;;;;;;;;5043475;28;20055;-59
2024/01/01 11:08:57;;;;;;;13.63;7.63;;;;;;;;;;5043724;28;20081;-57
2024/01/01 11:11:27;;;;;;;17.67;7.63;;;;;;;;;;5043294;28;20036;-62
2024/01/01 11:13:55;;;;;;;12.90;7.18;;;;;;;;;;5043174;28;20187;-56
2024/01/01 11:16:21;;;;;;;17.13;7.57;;;;;;;;;;5043378;28;20021;-59
2024/01/01 11:18:48;;;;;;;11.27;7.47;;;;;;;;;;5043377;28;20017;-59
2024/01/01 11:21:35;;;;;;;15.50;7.10;;;;;;;;;;5043239;28;20050;-55
2024/01/01 11:24:01;;;;;;;17.58;7.53;;;;;;;;;;5043244;28;20029;-58
2024/01/01 11:26:34;;;;;;;10.98;7.20;;;;;;;;;;5043315;28;20119;-58
2024/01/01 11:29:05;;;;;;;12.10;7.75;;;;;;;;;;5043142;28;20025;-57
2024/01/01 11:31:32;;;;;;;13.88;7.95;;;;;;;;;;5043042;28;20344;-59
2024/01/01 11:34:09;;;;;;;17.05;7.97;;;;;;;;;;5043026;28;20081;-59
2024/01/01 11:36:40;;;;;;;16.63;7.18;;;;;;;;;;5042934;28;20017;-59
2024/01/01 11:39:07;;;;;;;15.18;7.40;;;;;;;;;;5042996;28;20058;-63
2024/01/01 11:41:34;;;;;;;11.43;6.78;;;;;;;;;;5043229;28;20022;-56
2024/01/01 11:44:10;;;;;;;17.90;7.03;;;;;;;;;;5043015;28;20211;-61
2024/01/01 11:46:37;;;;;;;16.08;7.28;;;;;;;;;;5042997;28;20029;-55
2024/01/01 11:49:04;;;;;;;11.43;7.07;;;;;;;;;;5042336;28;20025;-56
2024/01/01 11:51:32;;;;;;;14.85;7.28;;;;;;;;;;5042897;28;20025;-59
2024/01/01 11:54:07;;;;;;;12.55;6.90;;;;;;;;;;5042437;28;20090;-60
2024/01/01 11:56:34;;;;;;;10.20;6.82;;;;;;;;;;5042784;28;20049;-59
2024/01/01 11:59:02;;;;;;;14.07;7.30;;;;;;;;;;5042592;28;20075;-61
2024/01/01 12:01:29;;;;;;;11.73;6.93;;;;;;;;;;5042559;28;20058;-59
2024/01/01 12:03:57;;;;;;;9.65;6.78;;;;;;;;;;5042665;28;20053;-62
2024/01/01 12:06:23;;;;;;;13.20;7.22;;;;;;;;;;5042409;28;20029;-59
2024/01/01 12:08:50;;;;;;;11.30;6.85;;;;;;;;;;5042480;28;20018;-60
2024/01/01 12:11:17;;;;;;;14.38;7.40;;;;;;;;;;5042478;28;20036;-59
2024/01/01 12:13:57;;;;;;;14.85;7.03;;;;;;;;;;5042279;28;20017;-60
2024/01/01 12:16:24;;;;;;;10.85;6.40;;;;;;;;;;5042579;28;20261;-59
2024/01/01 12:18:57;;;;;;;11.73;6.63;;;;;;;;;;5042456;28;20025;-59
2024/01/01 12:21:24;;;;;;;13.48;7.30;;;;;;;;;;5042197;28;20033;-54
2024/01/01 12:24:02;;;;;;;10.20;7.22;;;;;;;;;;5042246;28;20037;-58
2024/01/01 12:26:28;;;;;;;13.27;7.32;;;;;;;;;;5042058;28;20034;-60
2024/01/01 12:29:11;;;;;;;14.40;7.05;;;;;;;;;;5042304;28;20017;-59
2024/01/01 12:31:38;;;;;;;12.77;6.97;;;;;;;;;;5044130;28;20101;-58
2024/01/01 12:34:08;;;;;;;12.10;7.10;;;;;;;;;;5058229;28;20207;-60
2024/01/01 12:36:35;;;;;;;15.68;7.40;;;;;;;;;;5062140;28;20255;-56
2024/01/01 12:39:02;;;;;;;13.18;7.10;;;;;;;;;;5062001;27;20088;-59
2024/01/01 12:41:29;;;;;;;12.68;7.63;;;;;;;;;;5054255;28;20029;-60
2024/01/01 12:43:57;;;;;;;15.52;7.03;;;;;;;;;;5042057;28;20138;-59
2024/01/01 12:46:24;;;;;;;11.57;7.20;;;;;;;;;;5041715;28;20036;-60
2024/01/01 12:48:50;;;;;;;10.95;7.18;;;;;;;;;;5041820;28;20066;-60
2024/01/01 12:51:18;;;;;;;15.77;8.10;;;;;;;;;;5041903;28;20318;-60
2024/01/01 12:53:45;;;;;;;30.33;8.43;;;;;;;;;;5041422;28;20090;-59
2024/01/01 12:56:12;;;;;;;16.23;7.85;;;;;;;;;;5041814;28;20029;-62
2024/01/01 12:58:42;;;;;;;13.35;7.63;;;;;;;;;;5041772;28;20305;-61
2024/01/01 13:01:11;;;;;;;10.65;7.60;;;;;;;;;;5040532;28;20337;-62
2024/01/01 13:03:43;;;;;;;15.77;7.70;;;;;;;;;;5041452;28;20025;-60
2024/01/01 13:06:10;;;;;;;12.30;7.28;;;;;;;;;;5041571;28;20221;-56
2024/01/01 13:08:37;;;;;;;14.63;7.70;;;;;;;;;;5041489;28;20031;-60
2024/01/01 13:11:07;;;;;;;14.25;7.45;;;;;;;;;;5041660;28;20029;-62
2024/01/01 13:13:34;;;;;;;16.23;7.38;;;;;;;;;;5107856;27;20180;-55
2024/01/01 13:16:01;;;;;;;14.63;7.30;;;;;;;;;;5074861;27;20031;-53
2024/01/01 13:18:28;;;;;;;9.88;7.40;;;;;;;;;;5145604;27;20011;-57
2024/01/01 13:20:54;;;;;;;15.75;7.32;;;;;;;;;;5112782;27;20053;-57
2024/01/01 13:23:21;;;;;;;9.80;7.75;;;;;;;;;;5060965;28;20031;-59
2024/01/01 13:25:49;;;;;;;14.48;7.88;;;;;;;;;;5061393;28;20053;-59
2024/01/01 13:28:16;;;;;;;11.25;7.70;;;;;;;;;;5061091;28;20017;-60
2024/01/01 13:30:45;;;;;;;9.27;7.82;;;;;;;;;;5060983;28;20053;-61
2024/01/01 13:33:12;;;;;;;11.25;7.22;;;;;;;;;;5061214;28;20021;-61
2024/01/01 13:35:40;;;;;;;11.00;8.18;;;;;;;;;;5137940;27;20015;-60
2024/01/01 13:38:07;;;;;;;13.75;8.07;;;;;;;;;;5145085;27;20027;-59
2024/01/01 13:40:35;;;;;;;13.02;7.85;;;;;;;;;;5145548;27;20043;-62
2024/01/01 13:43:02;;;;;;;12.50;8.35;;;;;;;;;;5125886;27;20052;-57
2024/01/01 13:45:28;;;;;;;12.00;7.63;;;;;;;;;;5145419;27;20022;-61
2024/01/01 13:47:55;;;;;;;14.05;7.75;;;;;;;;;;5103674;27;20030;-59
2024/01/01 13:50:22;;;;;;;11.60;7.90;;;;;;;;;;5109869;27;20023;-64
2024/01/01 13:52:50;;;;;;;11.77;7.47;;;;;;;;;;5144653;27;20039;-54
2024/01/01 13:55:20;;;;;;;8.63;7.50;;;;;;;;;;5143737;27;20091;-59
2024/01/01 13:57:47;;;;;;;12.35;7.88;;;;;;;;;;5060777;28;20033;-61
2024/01/01 14:00:14;;;;;;;10.80;7.40;;;;;;;;;;5061052;28;20253;-62
2024/01/01 14:02:44;;;;;;;11.40;7.53;;;;;;;;;;5060648;28;20025;-62
2024/01/01 14:05:10;;;;;;;14.45;7.60;;;;;;;;;;5061114;28;20036;-61
2024/01/01 14:07:37;;;;;;;11.82;7.53;;;;;;;;;;5102320;28;20034;-62
2024/01/01 14:10:04;;;;;;;10.32;6.75;;;;;;;;;;5145320;27;20345;-60
2024/01/01 14:12:30;;;;;;;9.65;7.20;;;;;;;;;;5147199;27;20031;-62
2024/01/01 14:14:57;;;;;;;14.52;7.95;;;;;;;;;;5147550;27;20349;-61
2024/01/01 14:17:24;;;;;;;11.00;7.63;;;;;;;;;;5072875;27;20101;-59
2024/01/01 14:19:52;;;;;;;11.80;7.35;;;;;;;;;;5062629;28;20278;-59
2024/01/01 14:22:20;;;;;;;13.95;7.28;;;;;;;;;;5062213;28;20035;-61
2024/01/01 14:24:46;;;;;;;10.50;7.20;;;;;;;;;;5062550;28;20339;-60
2024/01/01 14:27:13;;;;;;;11.40;7.40;;;;;;;;;;5062221;28;20035;-61